createdAt,value
2023-06-16T00:00:00.612Z,101178.59
2023-06-16T00:02:36.133Z,101182.25
2023-06-16T00:05:11.489Z,101181.69
2023-06-16T00:07:44.197Z,101171.28
2023-06-16T00:10:17.077Z,101181.16
2023-06-16T00:12:49.717Z,101171.91
2023-06-16T00:15:22.437Z,101171.41
2023-06-16T00:17:58.414Z,101171.81
2023-06-16T00:20:31.159Z,101178.28
2023-06-16T00:23:03.600Z,101175.56
2023-06-16T00:25:36.000Z,101168.16
2023-06-16T00:28:08.399Z,101170.56
2023-06-16T00:30:40.835Z,101165.06
2023-06-16T00:33:18.663Z,101164.81
2023-06-16T00:35:51.086Z,101159.47
2023-06-16T00:38:22.757Z,101156.31
2023-06-16T00:40:54.775Z,101158.44
2023-06-16T00:43:26.561Z,101160.13
2023-06-16T00:45:58.870Z,101156.88
2023-06-16T00:48:33.197Z,101164.03
2023-06-16T00:51:06.136Z,101157.69
2023-06-16T00:53:37.796Z,101163.97
2023-06-16T00:56:10.003Z,101165.34
2023-06-16T00:58:52.774Z,101164.50
2023-06-16T01:01:30.724Z,101162.22
2023-06-16T01:04:05.497Z,101156.75
2023-06-16T01:06:50.880Z,101146.16
2023-06-16T01:09:28.274Z,101143.28
2023-06-16T01:12:08.556Z,101141.44
2023-06-16T01:14:50.806Z,101141.25
2023-06-16T01:17:27.643Z,101140.16
2023-06-16T01:20:10.482Z,101140.94
2023-06-16T01:23:02.546Z,101128.72
2023-06-16T01:25:39.995Z,101129.34
2023-06-16T01:28:14.581Z,101126.63
2023-06-16T01:30:51.818Z,101121.41
2023-06-16T01:33:27.278Z,101131.66
2023-06-16T01:35:59.724Z,101127.66
2023-06-16T01:38:33.155Z,101125.44
2023-06-16T01:41:08.479Z,101125.25
2023-06-16T01:43:42.311Z,101131.97
2023-06-16T01:46:14.732Z,101131.34
2023-06-16T01:48:47.400Z,101135.69
2023-06-16T01:51:19.861Z,101133.34
2023-06-16T01:53:52.647Z,101128.91
2023-06-16T01:56:27.139Z,101134.03
2023-06-16T01:58:59.317Z,101125.19
2023-06-16T02:01:33.277Z,101117.88
2023-06-16T02:04:13.041Z,101114.72
2023-06-16T02:06:49.161Z,101120.31
2023-06-16T02:09:22.621Z,101120.59
2023-06-16T02:11:57.518Z,101122.28
2023-06-16T02:14:30.366Z,101121.53
2023-06-16T02:17:04.458Z,101121.34
2023-06-16T02:19:39.504Z,101119.84
2023-06-16T02:22:11.685Z,101119.78
2023-06-16T02:24:47.346Z,101113.25
2023-06-16T02:27:22.209Z,101106.53
2023-06-16T02:29:58.779Z,101108.47
2023-06-16T02:32:31.512Z,101106.72
2023-06-16T02:35:05.592Z,101102.78
2023-06-16T02:37:39.981Z,101102.59
2023-06-16T02:40:13.838Z,101094.28
2023-06-16T02:42:48.785Z,101102.59
2023-06-16T02:45:21.276Z,101097.25
2023-06-16T02:47:53.345Z,101094.63
2023-06-16T02:50:26.253Z,101105.19
2023-06-16T02:52:59.187Z,101092.22
2023-06-16T02:55:31.497Z,101095.97
2023-06-16T02:58:06.358Z,101092.22
2023-06-16T03:00:38.920Z,101102.97
2023-06-16T03:03:11.506Z,101099.38
2023-06-16T03:05:47.034Z,101105.84
2023-06-16T03:08:19.145Z,101107.25
2023-06-16T03:10:52.936Z,101097.63
2023-06-16T03:13:27.440Z,101102.41
2023-06-16T03:16:02.313Z,101100.22
2023-06-16T03:18:34.774Z,101101.47
2023-06-16T03:21:07.040Z,101087.44
2023-06-16T03:23:38.748Z,101093.72
2023-06-16T03:26:10.855Z,101094.59
2023-06-16T03:28:45.537Z,101099.06
2023-06-16T03:31:17.515Z,101093.19
2023-06-16T03:33:49.225Z,101097.56
2023-06-16T03:36:21.377Z,101099.16
2023-06-16T03:38:53.060Z,101100.34
2023-06-16T03:41:25.179Z,101094.34
2023-06-16T03:43:59.497Z,101098.06
2023-06-16T03:46:33.843Z,101094.72
2023-06-16T03:49:19.177Z,101097.72
2023-06-16T03:51:51.196Z,101108.34
2023-06-16T03:54:23.787Z,101104.41
2023-06-16T03:56:55.915Z,101106.28
2023-06-16T03:59:30.254Z,101110.78
2023-06-16T04:02:07.967Z,101108.78
2023-06-16T04:04:39.877Z,101104.81
2023-06-16T04:07:13.319Z,101100.78
2023-06-16T04:09:44.935Z,101107.53
2023-06-16T04:12:17.100Z,101107.88
2023-06-16T04:14:52.177Z,101107.25
2023-06-16T04:17:24.143Z,101114.03
2023-06-16T04:19:56.255Z,101113.66
2023-06-16T04:22:28.253Z,101111.59
2023-06-16T04:24:59.897Z,101111.69
2023-06-16T04:27:33.663Z,101112.28
2023-06-16T04:30:09.538Z,101110.31
2023-06-16T04:32:41.967Z,101112.19
2023-06-16T04:35:14.305Z,101106.91
2023-06-16T04:37:46.781Z,101104.72
2023-06-16T04:40:18.781Z,101105.31
2023-06-16T04:42:51.503Z,101106.13
2023-06-16T04:45:25.812Z,101098.56
2023-06-16T04:47:57.876Z,101101.47
2023-06-16T04:50:29.522Z,101099.72
2023-06-16T04:53:01.679Z,101096.81
2023-06-16T04:55:33.343Z,101094.34
2023-06-16T04:58:05.706Z,101100.59
2023-06-16T05:00:40.022Z,101102.41
2023-06-16T05:03:12.400Z,101090.84
2023-06-16T05:05:44.580Z,101091.88
2023-06-16T05:08:16.642Z,101089.81
2023-06-16T05:10:48.968Z,101099.53
2023-06-16T05:13:21.466Z,101089.53
2023-06-16T05:15:56.302Z,101075.81
2023-06-16T05:18:28.908Z,101091.44
2023-06-16T05:21:01.063Z,101095.97
2023-06-16T05:23:33.438Z,101084.41
2023-06-16T05:26:05.399Z,101091.94
2023-06-16T05:28:37.945Z,101096.34
2023-06-16T05:31:12.419Z,101087.78
2023-06-16T05:33:44.481Z,101088.09
2023-06-16T05:36:16.233Z,101088.03
2023-06-16T05:38:49.501Z,101083.38
2023-06-16T05:41:25.071Z,101090.81
2023-06-16T05:43:58.539Z,101094.22
2023-06-16T05:46:33.498Z,101093.63
2023-06-16T05:49:05.733Z,101093.25
2023-06-16T05:51:38.217Z,101093.78
2023-06-16T05:54:10.267Z,101105.28
2023-06-16T05:56:41.925Z,101098.06
2023-06-16T05:59:13.931Z,101090.56
2023-06-16T06:01:48.274Z,101096.88
2023-06-16T06:04:24.894Z,101097.63
2023-06-16T06:06:56.755Z,101096.22
2023-06-16T06:09:29.263Z,101100.34
2023-06-16T06:12:01.060Z,101104.28
2023-06-16T06:14:33.143Z,101098.38
2023-06-16T06:17:08.023Z,101095.91
2023-06-16T06:19:40.185Z,101110.53
2023-06-16T06:22:11.976Z,101107.34
2023-06-16T06:24:44.089Z,101112.03
2023-06-16T06:27:16.534Z,101103.66
2023-06-16T06:29:48.695Z,101102.78
2023-06-16T06:32:23.075Z,101118.19
2023-06-16T06:34:55.219Z,101115.47
2023-06-16T06:37:32.256Z,101115.84
2023-06-16T06:40:04.277Z,101110.50
2023-06-16T06:42:36.118Z,101110.31
2023-06-16T06:45:10.650Z,101113.19
2023-06-16T06:47:45.110Z,101116.97
2023-06-16T06:50:17.485Z,101120.09
2023-06-16T06:52:49.445Z,101127.84
2023-06-16T06:55:22.362Z,101128.28
2023-06-16T06:57:54.162Z,101125.50
2023-06-16T07:00:26.260Z,101129.41
2023-06-16T07:03:01.267Z,101129.25
2023-06-16T07:05:35.481Z,101130.72
2023-06-16T07:08:08.117Z,101129.09
2023-06-16T07:10:40.226Z,101129.59
2023-06-16T07:13:12.012Z,101127.44
2023-06-16T07:15:44.473Z,101140.34
2023-06-16T07:18:19.460Z,101140.81
2023-06-16T07:20:51.896Z,101132.75
2023-06-16T07:23:23.975Z,101138.25
2023-06-16T07:25:56.552Z,101144.75
2023-06-16T07:28:28.990Z,101142.31
2023-06-16T07:31:01.938Z,101147.63
2023-06-16T07:33:37.232Z,101148.22
2023-06-16T07:36:44.497Z,101145.56
2023-06-16T07:39:17.467Z,101142.91
2023-06-16T07:41:50.136Z,101141.31
2023-06-16T07:44:22.560Z,101137.75
2023-06-16T07:46:55.666Z,101133.56
2023-06-16T07:49:30.948Z,101140.97
2023-06-16T07:52:04.228Z,101137.25
2023-06-16T07:54:36.740Z,101134.81
2023-06-16T07:57:10.602Z,101137.97
2023-06-16T07:59:43.025Z,101135.16
2023-06-16T08:02:15.857Z,101134.47
2023-06-16T08:04:51.118Z,101134.47
2023-06-16T08:07:23.861Z,101127.47
2023-06-16T08:09:56.341Z,101124.47
2023-06-16T08:12:29.705Z,101134.34
2023-06-16T08:15:02.139Z,101124.22
2023-06-16T08:17:35.044Z,101118.56
2023-06-16T08:20:11.945Z,101117.75
2023-06-16T08:22:46.420Z,101120.03
2023-06-16T08:25:18.867Z,101128.78
2023-06-16T08:27:51.790Z,101128.22
2023-06-16T08:30:24.566Z,101123.72
2023-06-16T08:32:57.279Z,101113.25
2023-06-16T08:35:32.477Z,101113.97
2023-06-16T08:38:05.384Z,101122.72
2023-06-16T08:40:38.105Z,101134.66
2023-06-16T08:43:13.096Z,101131.41
2023-06-16T08:45:47.255Z,101130.72
2023-06-16T08:48:20.254Z,101129.66
2023-06-16T08:51:15.877Z,101133.31
2023-06-16T08:53:58.976Z,101131.66
2023-06-16T08:56:33.460Z,101134.94
2023-06-16T08:59:07.509Z,101132.75
2023-06-16T09:01:41.110Z,101131.34
2023-06-16T09:04:15.510Z,101125.75
2023-06-16T09:06:57.573Z,101129.66
2023-06-16T09:09:30.615Z,101128.09
2023-06-16T09:12:10.744Z,101130.03
2023-06-16T09:14:50.054Z,101137.22
2023-06-16T09:17:26.830Z,101138.97
2023-06-16T09:20:00.418Z,101134.47
2023-06-16T09:22:35.592Z,101138.66
2023-06-16T09:25:10.742Z,101137.19
2023-06-16T09:27:47.891Z,101141.56
2023-06-16T09:30:22.837Z,101141.66
2023-06-16T09:32:56.745Z,101131.69
2023-06-16T09:35:30.846Z,101142.34
2023-06-16T09:38:07.538Z,101138.81
2023-06-16T09:40:40.447Z,101137.25
2023-06-16T09:43:13.259Z,101140.22
2023-06-16T09:45:46.323Z,101143.09
2023-06-16T09:48:19.014Z,101139.75
2023-06-16T09:50:57.102Z,101142.53
2023-06-16T09:53:32.375Z,101138.72
2023-06-16T09:56:05.898Z,101154.34
2023-06-16T09:58:42.730Z,101142.19
2023-06-16T10:01:16.996Z,101144.38
2023-06-16T10:03:53.178Z,101134.94
2023-06-16T10:06:29.781Z,101145.34
2023-06-16T10:09:08.660Z,101152.28
2023-06-16T10:11:42.816Z,101147.38
2023-06-16T10:14:16.018Z,101141.22
2023-06-16T10:16:51.955Z,101142.97
2023-06-16T10:19:28.766Z,101143.91
2023-06-16T10:22:01.380Z,101147.97
2023-06-16T10:24:38.080Z,101145.06
2023-06-16T10:27:12.503Z,101146.34
2023-06-16T10:29:48.139Z,101143.06
2023-06-16T10:32:20.738Z,101144.19
2023-06-16T10:34:58.695Z,101149.69
2023-06-16T10:37:33.306Z,101146.97
2023-06-16T10:40:11.457Z,101139.44
2023-06-16T10:42:45.231Z,101138.22
2023-06-16T10:45:28.382Z,101150.09
2023-06-16T10:48:04.501Z,101146.94
2023-06-16T10:50:45.342Z,101132.91
2023-06-16T10:53:19.156Z,101135.38
2023-06-16T10:56:09.705Z,101133.50
2023-06-16T10:58:42.260Z,101127.34
2023-06-16T11:01:30.158Z,101132.19
2023-06-16T11:04:08.157Z,101129.66
2023-06-16T11:07:30.587Z,101141.63
2023-06-16T11:10:08.028Z,101140.56
2023-06-16T11:13:03.740Z,101134.84
2023-06-16T11:15:36.669Z,101134.84
2023-06-16T11:18:10.560Z,101134.03
2023-06-16T11:20:43.898Z,101129.53
2023-06-16T11:23:15.939Z,101132.53
2023-06-16T11:25:48.416Z,101128.19
2023-06-16T11:28:24.176Z,101126.94
2023-06-16T11:30:56.746Z,101131.34
2023-06-16T11:33:29.018Z,101134.88
2023-06-16T11:36:09.220Z,101143.69
2023-06-16T11:38:46.217Z,101132.34
2023-06-16T11:41:19.821Z,101126.31
2023-06-16T11:43:56.547Z,101128.19
2023-06-16T11:46:31.997Z,101134.63
2023-06-16T11:49:06.418Z,101116.34
2023-06-16T11:51:39.296Z,101115.97
2023-06-16T11:54:13.500Z,101126.34
2023-06-16T11:56:46.019Z,101128.41
2023-06-16T11:59:21.350Z,101134.56
2023-06-16T12:01:54.179Z,101128.94
2023-06-16T12:04:26.710Z,101130.81
2023-06-16T12:07:01.205Z,101137.03
2023-06-16T12:09:41.504Z,101136.19
2023-06-16T12:12:15.463Z,101135.59
2023-06-16T12:14:50.943Z,101140.28
2023-06-16T12:17:27.164Z,101122.59
2023-06-16T12:20:00.110Z,101128.66
2023-06-16T12:22:40.188Z,101130.19
2023-06-16T12:25:16.825Z,101136.09
2023-06-16T12:27:51.032Z,101129.41
2023-06-16T12:30:36.292Z,101127.75
2023-06-16T12:33:14.459Z,101126.69
2023-06-16T12:35:50.704Z,101128.13
2023-06-16T12:38:35.156Z,101126.28
2023-06-16T12:41:07.622Z,101132.34
2023-06-16T12:43:40.463Z,101130.56
2023-06-16T12:46:15.672Z,101130.03
2023-06-16T12:48:48.865Z,101130.06
2023-06-16T12:51:23.221Z,101128.00
2023-06-16T12:53:56.066Z,101133.44
2023-06-16T12:56:28.704Z,101136.78
2023-06-16T12:59:03.824Z,101126.34
2023-06-16T13:01:41.548Z,101128.00
2023-06-16T13:04:14.479Z,101126.75
2023-06-16T13:06:47.020Z,101128.19
2023-06-16T13:09:22.426Z,101120.66
2023-06-16T13:11:55.022Z,101118.91
2023-06-16T13:14:27.683Z,101121.00
2023-06-16T13:17:02.464Z,101110.97
2023-06-16T13:19:35.112Z,101113.53
2023-06-16T13:22:08.670Z,101109.72
2023-06-16T13:24:42.300Z,101112.28
2023-06-16T13:27:14.437Z,101106.16
2023-06-16T13:29:46.983Z,101108.09
2023-06-16T13:32:21.856Z,101103.28
2023-06-16T13:34:54.256Z,101093.66
2023-06-16T13:37:26.386Z,101094.66
2023-06-16T13:39:59.149Z,101096.41
2023-06-16T13:42:31.577Z,101080.81
2023-06-16T13:45:03.982Z,101086.75
2023-06-16T13:47:38.771Z,101082.88
2023-06-16T13:50:11.875Z,101084.63
2023-06-16T13:52:44.022Z,101087.66
2023-06-16T13:55:16.458Z,101085.03
2023-06-16T13:57:48.618Z,101085.84
2023-06-16T14:00:22.323Z,101087.06
2023-06-16T14:02:58.550Z,101079.91
2023-06-16T14:05:31.139Z,101066.22
2023-06-16T14:08:04.905Z,101069.34
2023-06-16T14:10:37.823Z,101061.34
2023-06-16T14:13:09.900Z,101060.06
2023-06-16T14:15:42.906Z,101060.63
2023-06-16T14:18:17.763Z,101055.88
2023-06-16T14:20:50.657Z,101055.16
2023-06-16T14:23:22.655Z,101056.22
2023-06-16T14:25:55.142Z,101057.28
2023-06-16T14:28:27.296Z,101050.19
2023-06-16T14:30:59.770Z,101055.72
2023-06-16T14:33:34.557Z,101064.28
2023-06-16T14:36:07.257Z,101055.47
2023-06-16T14:38:39.301Z,101050.16
2023-06-16T14:41:11.790Z,101048.94
2023-06-16T14:43:43.939Z,101055.16
2023-06-16T14:46:16.665Z,101059.66
2023-06-16T14:48:51.576Z,101066.19
2023-06-16T14:51:23.982Z,101046.56
2023-06-16T14:53:56.176Z,101046.50
2023-06-16T14:56:28.615Z,101035.25
2023-06-16T14:59:00.702Z,101033.09
2023-06-16T15:01:33.380Z,101036.50
2023-06-16T15:04:08.574Z,101023.44
2023-06-16T15:06:41.104Z,101024.13
2023-06-16T15:09:13.459Z,101029.84
2023-06-16T15:11:46.860Z,101032.78
2023-06-16T15:14:19.348Z,101021.41
2023-06-16T15:16:52.585Z,101013.72
2023-06-16T15:19:28.018Z,101015.88
2023-06-16T15:22:01.864Z,101006.88
2023-06-16T15:24:34.514Z,101012.91
2023-06-16T15:27:07.863Z,101006.72
2023-06-16T15:29:40.222Z,101000.97
2023-06-16T15:32:13.136Z,100998.97
2023-06-16T15:34:48.221Z,100995.22
2023-06-16T15:37:21.146Z,100990.81
2023-06-16T15:39:53.536Z,100982.19
2023-06-16T15:42:26.457Z,100978.53
2023-06-16T15:44:59.147Z,100971.13
2023-06-16T15:47:32.049Z,100975.94
2023-06-16T15:50:07.621Z,100973.53
2023-06-16T15:52:40.539Z,100968.91
2023-06-16T15:55:13.389Z,100952.13
2023-06-16T15:57:46.218Z,100961.28
2023-06-16T16:00:19.337Z,100962.69
2023-06-16T16:02:52.596Z,100953.28
2023-06-16T16:05:28.179Z,100964.72
2023-06-16T16:08:01.084Z,100960.41
2023-06-16T16:10:33.658Z,100961.00
2023-06-16T16:13:06.536Z,100958.28
2023-06-16T16:15:39.496Z,100950.44
2023-06-16T16:18:12.988Z,100955.41
2023-06-16T16:20:49.947Z,100946.38
2023-06-16T16:23:30.234Z,100943.06
2023-06-16T16:26:02.736Z,100933.78
2023-06-16T16:28:35.615Z,100931.31
2023-06-16T16:31:08.049Z,100937.91
2023-06-16T16:33:40.817Z,100938.09
2023-06-16T16:36:17.423Z,100945.22
2023-06-16T16:38:50.384Z,100962.56
2023-06-16T16:41:22.741Z,100967.56
2023-06-16T16:43:55.577Z,100972.13
2023-06-16T16:46:28.427Z,100973.59
2023-06-16T16:49:01.351Z,100959.13
2023-06-16T16:51:36.556Z,100975.16
2023-06-16T16:54:09.475Z,100973.28
2023-06-16T16:56:42.016Z,100983.13
2023-06-16T16:59:14.947Z,100988.09
2023-06-16T17:01:48.003Z,100988.06
2023-06-16T17:04:23.896Z,100986.38
2023-06-16T17:06:59.135Z,100992.38
2023-06-16T17:09:32.897Z,100994.78
2023-06-16T17:12:05.508Z,101005.72
2023-06-16T17:14:38.297Z,101012.75
2023-06-16T17:17:12.160Z,101010.06
2023-06-16T17:19:44.942Z,101004.72
2023-06-16T17:22:20.061Z,101004.81
2023-06-16T17:24:52.778Z,101015.00
2023-06-16T17:27:25.268Z,101027.31
2023-06-16T17:29:58.112Z,101040.50
2023-06-16T17:32:30.547Z,101056.50
2023-06-16T17:35:03.301Z,101035.84
2023-06-16T17:37:38.416Z,101033.84
2023-06-16T17:40:12.257Z,101040.19
2023-06-16T17:42:44.693Z,101033.53
2023-06-16T17:45:17.742Z,101020.13
2023-06-16T17:47:50.183Z,101033.28
2023-06-16T17:50:25.834Z,101037.81
2023-06-16T17:53:04.043Z,101033.25
2023-06-16T17:55:37.399Z,101028.38
2023-06-16T17:58:10.552Z,101034.75
2023-06-16T18:00:42.993Z,101041.19
2023-06-16T18:03:15.135Z,101042.56
2023-06-16T18:05:47.991Z,101052.72
2023-06-16T18:08:22.669Z,101052.88
2023-06-16T18:10:55.460Z,101042.16
2023-06-16T18:13:28.346Z,101042.34
2023-06-16T18:16:03.175Z,101044.75
2023-06-16T18:18:36.792Z,101031.41
2023-06-16T18:21:09.132Z,101031.34
2023-06-16T18:23:43.911Z,101021.19
2023-06-16T18:26:38.850Z,101029.69
2023-06-16T18:29:10.997Z,101024.25
2023-06-16T18:31:48.211Z,101026.19
2023-06-16T18:34:20.575Z,101042.22
2023-06-16T18:36:52.854Z,101047.22
2023-06-16T18:39:28.173Z,101049.13
2023-06-16T18:42:00.541Z,101036.22
2023-06-16T18:44:33.355Z,101044.28
2023-06-16T18:47:10.537Z,101030.47
2023-06-16T18:49:42.571Z,101020.31
2023-06-16T18:52:15.101Z,101026.66
2023-06-16T18:54:49.816Z,101033.47
2023-06-16T18:57:22.263Z,101027.03
2023-06-16T18:59:55.499Z,101025.00
2023-06-16T19:02:29.044Z,101022.34
2023-06-16T19:05:01.636Z,101024.75
2023-06-16T19:07:34.076Z,101015.44
2023-06-16T19:10:10.162Z,101007.69
2023-06-16T19:12:42.737Z,101004.50
2023-06-16T19:15:19.907Z,101006.56
2023-06-16T19:17:52.381Z,101002.47
2023-06-16T19:20:24.505Z,101002.28
2023-06-16T19:22:57.019Z,100994.16
2023-06-16T19:25:32.737Z,100992.31
2023-06-16T19:28:05.269Z,100992.16
2023-06-16T19:30:38.006Z,100991.41
2023-06-16T19:33:10.605Z,100996.28
2023-06-16T19:35:42.817Z,100996.44
2023-06-16T19:38:15.283Z,101001.22
2023-06-16T19:40:49.908Z,101009.50
2023-06-16T19:43:22.217Z,101006.81
2023-06-16T19:45:54.300Z,101013.03
2023-06-16T19:48:26.795Z,101006.63
2023-06-16T19:50:58.840Z,101006.63
2023-06-16T19:53:31.488Z,101012.38
2023-06-16T19:56:06.694Z,101024.22
2023-06-16T19:58:39.053Z,101018.13
2023-06-16T20:01:11.415Z,101028.94
2023-06-16T20:03:44.116Z,101026.44
2023-06-16T20:06:16.494Z,101030.81
2023-06-16T20:08:48.927Z,101038.75
2023-06-16T20:11:23.656Z,101044.34
2023-06-16T20:13:56.159Z,101043.59
2023-06-16T20:16:28.922Z,101041.22
2023-06-16T20:19:11.971Z,101032.38
2023-06-16T20:21:45.456Z,101028.94
2023-06-16T20:24:17.829Z,101032.78
2023-06-16T20:26:52.468Z,101034.94
2023-06-16T20:29:24.814Z,101035.66
2023-06-16T20:31:57.412Z,101029.59
2023-06-16T20:34:29.766Z,101024.66
2023-06-16T20:37:01.948Z,101027.03
2023-06-16T20:39:34.378Z,101028.16
2023-06-16T20:42:10.267Z,101034.03
2023-06-16T20:44:42.778Z,101029.53
2023-06-16T20:47:14.767Z,101036.28
2023-06-16T20:49:47.280Z,101044.31
2023-06-16T20:52:19.395Z,101040.94
2023-06-16T20:54:53.176Z,101041.22
2023-06-16T20:57:27.951Z,101042.97
2023-06-16T21:00:00.425Z,101050.28
2023-06-16T21:02:35.264Z,101041.44
2023-06-16T21:05:08.655Z,101046.75
2023-06-16T21:07:45.896Z,101044.47
2023-06-16T21:10:19.783Z,101039.22
2023-06-16T21:12:54.944Z,101033.47
2023-06-16T21:15:28.194Z,101024.72
2023-06-16T21:18:01.210Z,101026.69
2023-06-16T21:20:33.678Z,101028.00
2023-06-16T21:23:06.446Z,101032.09
2023-06-16T21:25:38.926Z,101034.19
2023-06-16T21:28:13.735Z,101038.06
2023-06-16T21:30:56.601Z,101034.47
2023-06-16T21:33:31.173Z,101022.59
2023-06-16T21:36:03.415Z,101026.34
2023-06-16T21:38:37.952Z,101023.00
2023-06-16T21:41:11.358Z,101015.81
2023-06-16T21:43:46.133Z,101024.16
2023-06-16T21:46:20.386Z,101023.84
2023-06-16T21:48:53.812Z,101018.09
2023-06-16T21:51:26.332Z,101014.66
2023-06-16T21:53:58.298Z,101017.53
2023-06-16T21:56:31.133Z,101015.16
2023-06-16T21:59:05.753Z,101018.50
2023-06-16T22:01:38.195Z,101013.00
2023-06-16T22:04:10.278Z,101010.69
2023-06-16T22:06:42.996Z,101008.59
2023-06-16T22:09:15.074Z,101011.97
2023-06-16T22:11:48.037Z,101011.97
2023-06-16T22:14:23.016Z,101017.06
2023-06-16T22:16:57.714Z,101017.41
2023-06-16T22:19:31.720Z,101023.66
2023-06-16T22:22:04.573Z,101025.16
2023-06-16T22:24:37.014Z,101032.72
2023-06-16T22:29:47.877Z,101021.78
2023-06-16T22:32:20.417Z,101021.63
2023-06-16T22:34:52.437Z,101017.59
2023-06-16T22:37:24.930Z,101018.06
2023-06-16T22:39:57.223Z,101011.13
2023-06-16T22:42:29.529Z,101011.84
2023-06-16T22:45:04.237Z,101009.13
2023-06-16T22:47:38.772Z,101015.72
2023-06-16T22:50:11.790Z,101019.81
2023-06-16T22:52:44.156Z,101020.00
2023-06-16T22:55:16.928Z,101003.09
2023-06-16T22:57:49.297Z,101008.41
2023-06-16T23:00:24.587Z,101006.06
2023-06-16T23:02:57.079Z,101007.44
2023-06-16T23:05:29.177Z,101003.88
2023-06-16T23:08:01.493Z,101006.25
2023-06-16T23:10:33.691Z,101000.44
2023-06-16T23:13:06.101Z,101003.31
2023-06-16T23:15:42.341Z,100993.69
2023-06-16T23:18:14.836Z,100992.56
2023-06-16T23:20:47.085Z,100996.41
2023-06-16T23:23:19.337Z,100996.09
2023-06-16T23:25:53.159Z,101001.16
2023-06-16T23:28:26.003Z,101000.00
2023-06-16T23:31:02.327Z,101002.16
2023-06-16T23:33:37.378Z,100992.50
2023-06-16T23:36:09.613Z,100992.31
2023-06-16T23:38:42.135Z,100999.91
2023-06-16T23:41:14.403Z,100999.78
2023-06-16T23:43:47.012Z,100998.16
2023-06-16T23:46:21.897Z,100996.41
2023-06-16T23:48:54.382Z,100991.53
2023-06-16T23:51:26.374Z,100993.16
2023-06-16T23:53:58.635Z,100996.13
2023-06-16T23:56:30.613Z,100999.16
2023-06-16T23:59:03.013Z,100999.97
